createdAt,value
2023-10-24T00:00:41.277Z,97695.16
2023-10-24T00:03:11.760Z,97684.28
2023-10-24T00:05:39.414Z,97683.00
2023-10-24T00:08:10.036Z,97669.19
2023-10-24T00:10:37.773Z,97652.78
2023-10-24T00:13:05.260Z,97659.41
2023-10-24T00:15:32.939Z,97661.19
2023-10-24T00:18:00.622Z,97667.09
2023-10-24T00:20:28.327Z,97675.69
2023-10-24T00:22:55.689Z,97666.78
2023-10-24T00:25:23.408Z,97670.22
2023-10-24T00:27:50.947Z,97679.69
2023-10-24T00:30:18.649Z,97687.22
2023-10-24T00:32:50.892Z,97683.72
2023-10-24T00:35:19.134Z,97690.19
2023-10-24T00:37:46.788Z,97696.63
2023-10-24T00:40:14.361Z,97694.28
2023-10-24T00:42:41.847Z,97695.16
2023-10-24T00:45:10.845Z,97708.66
2023-10-24T00:47:41.335Z,97695.41
2023-10-24T00:50:09.518Z,97695.16
2023-10-24T00:52:37.982Z,97686.47
2023-10-24T00:55:09.075Z,97690.00
2023-10-24T00:57:37.432Z,97695.72
2023-10-24T01:00:05.362Z,97683.22
2023-10-24T01:02:33.227Z,97684.31
2023-10-24T01:05:01.805Z,97690.84
2023-10-24T01:07:29.538Z,97683.56
2023-10-24T01:09:57.048Z,97674.94
2023-10-24T01:12:24.568Z,97680.91
2023-10-24T01:14:52.193Z,97675.69
2023-10-24T01:17:19.830Z,97665.97
2023-10-24T01:19:48.635Z,97656.50
2023-10-24T01:22:18.997Z,97649.16
2023-10-24T01:24:49.117Z,97639.72
2023-10-24T01:27:17.626Z,97645.97
2023-10-24T01:29:45.129Z,97650.31
2023-10-24T01:32:12.864Z,97653.47
2023-10-24T01:34:40.699Z,97647.91
2023-10-24T01:37:08.377Z,97648.13
2023-10-24T01:39:36.096Z,97645.78
2023-10-24T01:42:03.720Z,97648.41
2023-10-24T01:44:31.381Z,97646.19
2023-10-24T01:46:59.461Z,97644.38
2023-10-24T01:49:27.131Z,97649.78
2023-10-24T01:51:54.596Z,97635.56
2023-10-24T01:54:22.239Z,97639.94
2023-10-24T01:56:49.807Z,97633.03
2023-10-24T01:59:17.271Z,97642.16
2023-10-24T02:01:44.831Z,97638.06
2023-10-24T02:04:15.160Z,97638.88
2023-10-24T02:06:42.934Z,97639.50
2023-10-24T02:09:12.365Z,97638.31
2023-10-24T02:11:39.766Z,97641.94
2023-10-24T02:14:07.399Z,97643.78
2023-10-24T02:16:37.146Z,97646.91
2023-10-24T02:19:05.902Z,97647.53
2023-10-24T02:21:33.445Z,97656.78
2023-10-24T02:24:01.118Z,97652.34
2023-10-24T02:26:29.707Z,97661.00
2023-10-24T02:28:58.302Z,97655.53
2023-10-24T02:31:25.945Z,97640.25
2023-10-24T02:33:54.634Z,97652.09
2023-10-24T02:36:22.345Z,97652.44
2023-10-24T02:38:50.289Z,97643.50
2023-10-24T02:41:17.709Z,97632.69
2023-10-24T02:43:45.439Z,97635.16
2023-10-24T02:46:13.756Z,97634.81
2023-10-24T02:48:41.526Z,97634.63
2023-10-24T02:51:09.105Z,97639.00
2023-10-24T02:53:36.746Z,97637.41
2023-10-24T02:56:04.571Z,97647.06
2023-10-24T02:58:32.533Z,97651.97
2023-10-24T03:01:06.908Z,97658.19
2023-10-24T03:03:34.752Z,97655.13
2023-10-24T03:06:02.535Z,97668.06
2023-10-24T03:08:30.158Z,97665.91
2023-10-24T03:10:58.774Z,97660.41
2023-10-24T03:13:26.334Z,97648.63
2023-10-24T03:15:55.956Z,97637.31
2023-10-24T03:18:26.369Z,97637.88
2023-10-24T03:20:54.059Z,97653.25
2023-10-24T03:23:21.460Z,97643.75
2023-10-24T03:25:49.251Z,97639.28
2023-10-24T03:28:16.907Z,97633.56
2023-10-24T03:30:44.745Z,97626.22
2023-10-24T03:33:12.397Z,97618.53
2023-10-24T03:35:41.247Z,97623.22
2023-10-24T03:38:09.056Z,97616.63
2023-10-24T03:40:39.497Z,97615.03
2023-10-24T03:43:09.510Z,97612.41
2023-10-24T03:45:39.287Z,97599.69
2023-10-24T03:48:07.072Z,97589.94
2023-10-24T03:50:38.489Z,97579.91
2023-10-24T03:53:06.846Z,97573.69
2023-10-24T03:55:35.345Z,97581.75
2023-10-24T03:58:04.081Z,97571.28
2023-10-24T04:00:31.724Z,97576.19
2023-10-24T04:03:01.753Z,97575.00
2023-10-24T04:05:35.252Z,97578.56
2023-10-24T04:08:04.383Z,97578.06
2023-10-24T04:10:34.697Z,97576.53
2023-10-24T04:13:02.962Z,97577.69
2023-10-24T04:15:32.639Z,97585.38
2023-10-24T04:18:00.302Z,97582.84
2023-10-24T04:20:27.899Z,97584.00
2023-10-24T04:22:55.545Z,97578.34
2023-10-24T04:25:23.385Z,97575.13
2023-10-24T04:27:51.124Z,97579.47
2023-10-24T04:30:19.803Z,97582.16
2023-10-24T04:32:49.728Z,97574.56
2023-10-24T04:35:17.141Z,97579.06
2023-10-24T04:37:47.563Z,97578.53
2023-10-24T04:40:15.581Z,97589.03
2023-10-24T04:42:43.309Z,97586.69
2023-10-24T04:45:10.878Z,97590.47
2023-10-24T04:47:38.410Z,97594.56
2023-10-24T04:50:06.933Z,97582.97
2023-10-24T04:52:34.567Z,97587.28
2023-10-24T04:55:02.183Z,97575.38
2023-10-24T04:57:32.068Z,97579.09
2023-10-24T05:00:00.131Z,97571.56
2023-10-24T05:02:28.694Z,97568.13
2023-10-24T05:04:59.176Z,97573.81
2023-10-24T05:07:29.108Z,97556.56
2023-10-24T05:09:56.421Z,97569.50
2023-10-24T05:12:24.392Z,97561.06
2023-10-24T05:14:51.862Z,97560.06
2023-10-24T05:17:21.772Z,97558.97
2023-10-24T05:19:49.589Z,97553.16
2023-10-24T05:22:17.150Z,97545.28
2023-10-24T05:24:44.732Z,97532.94
2023-10-24T05:27:12.319Z,97520.88
2023-10-24T05:29:44.141Z,97520.91
2023-10-24T05:32:12.102Z,97523.56
2023-10-24T05:34:39.720Z,97534.88
2023-10-24T05:37:07.468Z,97532.19
2023-10-24T05:39:34.882Z,97534.88
2023-10-24T05:42:02.458Z,97527.59
2023-10-24T05:44:30.146Z,97522.75
2023-10-24T05:47:00.338Z,97516.00
2023-10-24T05:49:28.683Z,97522.47
2023-10-24T05:51:56.275Z,97518.44
2023-10-24T05:54:23.854Z,97519.78
2023-10-24T05:56:54.133Z,97525.72
2023-10-24T05:59:23.815Z,97532.97
2023-10-24T06:01:51.595Z,97520.31
2023-10-24T06:04:21.595Z,97512.25
2023-10-24T06:06:51.553Z,97508.22
2023-10-24T06:09:21.607Z,97504.41
2023-10-24T06:11:53.451Z,97510.88
2023-10-24T06:14:23.539Z,97520.56
2023-10-24T06:16:50.950Z,97516.81
2023-10-24T06:19:18.638Z,97517.59
2023-10-24T06:21:46.084Z,97531.16
2023-10-24T06:24:13.577Z,97540.75
2023-10-24T06:26:41.267Z,97533.50
2023-10-24T06:29:08.659Z,97538.00
2023-10-24T06:31:36.232Z,97544.53
2023-10-24T06:34:04.692Z,97547.19
2023-10-24T06:36:32.220Z,97544.47
2023-10-24T06:39:02.635Z,97541.03
2023-10-24T06:41:30.166Z,97538.41
2023-10-24T06:43:57.661Z,97543.25
2023-10-24T06:46:25.570Z,97527.72
2023-10-24T06:48:54.112Z,97527.91
2023-10-24T06:51:21.662Z,97530.69
2023-10-24T06:53:49.093Z,97534.50
2023-10-24T06:56:18.877Z,97532.97
2023-10-24T06:58:48.375Z,97532.38
2023-10-24T07:01:15.867Z,97531.81
2023-10-24T07:03:44.685Z,97539.91
2023-10-24T07:06:12.174Z,97545.81
2023-10-24T07:08:41.384Z,97556.53
2023-10-24T07:11:09.367Z,97548.44
2023-10-24T07:13:38.516Z,97554.13
2023-10-24T07:16:16.941Z,97549.47
2023-10-24T07:18:44.658Z,97553.31
2023-10-24T07:21:16.624Z,97545.41
2023-10-24T07:23:44.386Z,97560.03
2023-10-24T07:26:12.287Z,97555.56
2023-10-24T07:28:39.695Z,97556.72
2023-10-24T07:31:07.411Z,97563.69
2023-10-24T07:33:35.072Z,97556.69
2023-10-24T07:36:06.803Z,97558.53
2023-10-24T07:38:34.345Z,97571.81
2023-10-24T07:41:02.872Z,97564.16
2023-10-24T07:43:30.404Z,97562.97
2023-10-24T07:46:00.328Z,97558.75
2023-10-24T07:48:27.973Z,97558.22
2023-10-24T07:50:59.581Z,97547.31
2023-10-24T07:53:29.592Z,97556.06
2023-10-24T07:55:57.373Z,97554.50
2023-10-24T07:58:25.060Z,97550.97
2023-10-24T08:00:52.515Z,97548.34
2023-10-24T08:03:20.166Z,97565.09
2023-10-24T08:05:47.727Z,97571.16
2023-10-24T08:08:16.106Z,97559.06
2023-10-24T08:10:43.836Z,97556.22
2023-10-24T08:13:11.267Z,97558.25
2023-10-24T08:15:40.106Z,97553.84
2023-10-24T08:18:07.672Z,97565.88
2023-10-24T08:21:02.258Z,97574.97
2023-10-24T08:23:30.081Z,97564.13
2023-10-24T08:26:01.131Z,97566.19
2023-10-24T08:28:28.783Z,97555.06
2023-10-24T08:30:56.271Z,97552.31
2023-10-24T08:33:26.746Z,97550.78
2023-10-24T08:35:54.115Z,97552.69
2023-10-24T08:38:22.812Z,97549.78
2023-10-24T08:40:52.939Z,97555.22
2023-10-24T08:43:21.879Z,97560.22
2023-10-24T08:45:54.163Z,97573.28
2023-10-24T08:48:25.087Z,97574.16
2023-10-24T08:50:52.678Z,97577.31
2023-10-24T08:53:20.199Z,97589.44
2023-10-24T08:55:54.654Z,97588.13
2023-10-24T08:58:26.198Z,97585.25
2023-10-24T09:00:56.033Z,97592.16
2023-10-24T09:03:24.228Z,97584.28
2023-10-24T09:05:53.379Z,97586.13
2023-10-24T09:08:23.188Z,97590.59
2023-10-24T09:10:51.115Z,97582.44
2023-10-24T09:13:21.279Z,97595.38
2023-10-24T09:20:24.979Z,97582.56
2023-10-24T09:22:53.562Z,97585.78
2023-10-24T09:25:24.055Z,97576.63
2023-10-24T09:27:51.710Z,97580.38
2023-10-24T09:30:19.259Z,97574.03
2023-10-24T09:32:47.285Z,97583.69
2023-10-24T09:35:15.135Z,97577.84
2023-10-24T09:37:49.510Z,97590.25
2023-10-24T09:40:19.347Z,97584.66
2023-10-24T09:42:48.225Z,97582.56
2023-10-24T09:45:18.220Z,97587.91
2023-10-24T09:47:48.038Z,97586.59
2023-10-24T09:50:16.392Z,97577.63
2023-10-24T09:52:45.221Z,97587.09
2023-10-24T09:55:14.504Z,97585.63
2023-10-24T09:57:45.533Z,97580.88
2023-10-24T10:00:16.155Z,97574.28
2023-10-24T10:02:48.158Z,97576.44
2023-10-24T10:05:16.608Z,97573.13
2023-10-24T10:07:50.058Z,97574.16
2023-10-24T10:10:18.005Z,97572.19
2023-10-24T10:12:47.475Z,97569.84
2023-10-24T10:15:45.773Z,97566.28
2023-10-24T10:18:19.199Z,97563.00
2023-10-24T10:20:56.440Z,97571.25
2023-10-24T10:23:38.400Z,97556.63
2023-10-24T10:26:09.616Z,97550.28
2023-10-24T10:28:43.252Z,97547.63
2023-10-24T10:32:40.241Z,97541.56
2023-10-24T10:34:37.568Z,97535.69
2023-10-24T10:37:06.796Z,97535.44
2023-10-24T10:39:34.375Z,97528.44
2023-10-24T10:42:01.898Z,97534.63
2023-10-24T10:44:44.545Z,97541.66
2023-10-24T10:47:16.907Z,97532.56
2023-10-24T10:49:55.176Z,97530.97
2023-10-24T10:52:37.713Z,97538.94
2023-10-24T10:55:56.415Z,97530.75
2023-10-24T10:58:30.508Z,97532.00
2023-10-24T11:01:22.457Z,97520.25
2023-10-24T11:03:50.749Z,97510.88
2023-10-24T11:06:21.095Z,97506.31
2023-10-24T11:09:06.896Z,97509.91
2023-10-24T11:11:34.903Z,97516.56
2023-10-24T11:14:18.910Z,97506.16
2023-10-24T11:16:50.886Z,97515.81
2023-10-24T11:19:24.186Z,97509.88
2023-10-24T11:21:54.303Z,97502.50
2023-10-24T11:24:23.791Z,97504.50
2023-10-24T11:26:57.659Z,97508.38
2023-10-24T11:29:25.807Z,97507.06
2023-10-24T11:31:59.256Z,97516.19
2023-10-24T11:34:28.001Z,97513.16
2023-10-24T11:36:55.813Z,97506.09
2023-10-24T11:39:23.341Z,97500.69
2023-10-24T11:41:50.897Z,97505.13
2023-10-24T11:44:19.166Z,97500.69
2023-10-24T11:46:47.330Z,97500.84
2023-10-24T11:49:19.618Z,97503.94
2023-10-24T11:56:10.394Z,97487.09
2023-10-24T11:58:37.835Z,97488.81
2023-10-24T12:01:06.782Z,97482.84
2023-10-24T12:03:48.123Z,97471.91
2023-10-24T12:06:20.069Z,97472.69
2023-10-24T12:08:56.860Z,97482.25
2023-10-24T12:11:37.236Z,97477.44
2023-10-24T12:14:09.555Z,97473.50
2023-10-24T12:16:59.192Z,97478.97
2023-10-24T12:19:28.249Z,97465.25
2023-10-24T12:21:56.328Z,97475.91
2023-10-24T12:24:33.135Z,97468.22
2023-10-24T12:27:01.164Z,97473.97
2023-10-24T12:29:28.774Z,97473.41
2023-10-24T12:31:56.600Z,97464.34
2023-10-24T12:34:24.414Z,97459.09
2023-10-24T12:36:54.165Z,97459.63
2023-10-24T12:39:22.814Z,97457.19
2023-10-24T12:41:50.486Z,97455.94
2023-10-24T12:44:19.092Z,97459.59
2023-10-24T12:46:46.751Z,97463.53
2023-10-24T12:49:14.845Z,97460.72
2023-10-24T12:51:43.725Z,97460.13
2023-10-24T12:54:11.382Z,97452.81
2023-10-24T12:56:39.288Z,97443.19
2023-10-24T12:59:07.048Z,97442.75
2023-10-24T13:01:34.778Z,97445.69
2023-10-24T13:04:02.599Z,97451.13
2023-10-24T13:06:39.784Z,97446.59
2023-10-24T13:09:09.604Z,97432.63
2023-10-24T13:11:38.715Z,97447.69
2023-10-24T13:14:06.215Z,97443.53
2023-10-24T13:16:33.935Z,97443.25
2023-10-24T13:19:01.302Z,97442.13
2023-10-24T13:21:29.041Z,97437.28
2023-10-24T13:23:56.611Z,97445.50
2023-10-24T13:26:24.209Z,97445.16
2023-10-24T13:28:51.582Z,97440.09
2023-10-24T13:31:19.746Z,97435.31
2023-10-24T13:34:26.911Z,97436.38
2023-10-24T13:36:38.866Z,97437.75
2023-10-24T13:39:07.737Z,97435.59
2023-10-24T13:41:35.164Z,97423.50
2023-10-24T13:44:02.790Z,97440.72
2023-10-24T13:46:31.485Z,97431.03
2023-10-24T13:48:59.150Z,97433.22
2023-10-24T13:51:27.067Z,97423.94
2023-10-24T13:53:58.231Z,97426.84
2023-10-24T13:56:29.686Z,97422.47
2023-10-24T13:58:57.256Z,97419.00
2023-10-24T14:01:25.082Z,97417.72
2023-10-24T14:03:52.920Z,97416.44
2023-10-24T14:06:20.660Z,97410.75
2023-10-24T14:08:48.523Z,97415.91
2023-10-24T14:11:16.245Z,97418.06
2023-10-24T14:13:44.542Z,97424.72
2023-10-24T14:16:12.415Z,97432.16
2023-10-24T14:18:40.195Z,97431.34
2023-10-24T14:23:57.269Z,97424.28
2023-10-24T14:26:25.199Z,97432.03
2023-10-24T14:28:54.939Z,97426.09
2023-10-24T14:31:22.760Z,97434.03
2023-10-24T14:33:50.313Z,97420.44
2023-10-24T14:36:18.247Z,97419.94
2023-10-24T14:38:45.654Z,97410.72
2023-10-24T14:41:13.204Z,97423.16
2023-10-24T14:43:40.802Z,97417.84
2023-10-24T14:46:08.492Z,97419.16
2023-10-24T14:48:38.059Z,97430.00
2023-10-24T14:51:06.210Z,97427.09
2023-10-24T14:53:33.678Z,97428.19
2023-10-24T14:56:01.066Z,97432.31
2023-10-24T14:58:28.755Z,97430.50
2023-10-24T15:00:57.139Z,97428.31
2023-10-24T15:03:24.920Z,97426.13
2023-10-24T15:05:52.456Z,97424.88
2023-10-24T15:08:19.952Z,97419.72
2023-10-24T15:10:47.684Z,97422.25
2023-10-24T15:13:15.519Z,97419.19
2023-10-24T15:15:44.752Z,97405.34
2023-10-24T15:18:13.501Z,97413.84
2023-10-24T15:20:41.422Z,97416.28
2023-10-24T15:23:09.243Z,97403.38
2023-10-24T15:25:38.915Z,97407.72
2023-10-24T15:28:06.907Z,97400.16
2023-10-24T15:30:37.162Z,97407.91
2023-10-24T15:33:05.610Z,97405.91
2023-10-24T15:35:35.206Z,97403.97
2023-10-24T15:38:02.792Z,97402.38
2023-10-24T15:40:30.242Z,97404.78
2023-10-24T15:42:58.339Z,97403.19
2023-10-24T15:45:30.761Z,97406.66
2023-10-24T15:47:58.593Z,97404.53
2023-10-24T15:50:27.262Z,97401.56
2023-10-24T15:52:55.077Z,97406.19
2023-10-24T15:55:27.746Z,97402.41
2023-10-24T15:57:58.644Z,97404.09
2023-10-24T16:00:30.825Z,97408.66
2023-10-24T16:02:58.658Z,97407.22
2023-10-24T16:05:26.351Z,97397.66
2023-10-24T16:07:53.973Z,97388.09
2023-10-24T16:10:21.689Z,97398.22
2023-10-24T16:12:49.326Z,97394.22
2023-10-24T16:15:17.072Z,97395.81
2023-10-24T16:17:53.046Z,97387.50
2023-10-24T16:20:21.735Z,97393.41
2023-10-24T16:22:50.119Z,97385.31
2023-10-24T16:25:20.287Z,97385.34
2023-10-24T16:27:48.017Z,97384.00
2023-10-24T16:30:15.879Z,97386.94
2023-10-24T16:32:46.066Z,97390.16
2023-10-24T16:35:13.707Z,97388.88
2023-10-24T16:37:41.347Z,97397.97
2023-10-24T16:40:09.312Z,97395.28
2023-10-24T16:42:37.284Z,97399.09
2023-10-24T16:48:54.322Z,97407.56
2023-10-24T16:51:24.099Z,97402.25
2023-10-24T16:53:51.677Z,97409.78
2023-10-24T16:56:19.343Z,97408.50
2023-10-24T16:58:46.976Z,97411.72
2023-10-24T17:01:14.763Z,97409.88
2023-10-24T17:03:42.249Z,97423.31
2023-10-24T17:06:10.046Z,97428.44
2023-10-24T17:08:39.740Z,97430.03
2023-10-24T17:11:11.057Z,97430.88
2023-10-24T17:13:42.609Z,97437.91
2023-10-24T17:16:10.438Z,97434.09
2023-10-24T17:18:43.175Z,97432.44
2023-10-24T17:21:11.824Z,97418.44
2023-10-24T17:23:39.274Z,97423.63
2023-10-24T17:26:26.898Z,97427.63
2023-10-24T17:29:08.268Z,97429.16
2023-10-24T17:31:44.752Z,97428.72
2023-10-24T17:34:13.383Z,97411.44
2023-10-24T17:36:40.929Z,97428.06
2023-10-24T17:39:15.181Z,97431.88
2023-10-24T17:41:42.751Z,97423.13
2023-10-24T17:44:12.068Z,97435.06
2023-10-24T17:46:42.157Z,97432.31
2023-10-24T17:49:13.743Z,97431.44
2023-10-24T17:51:45.461Z,97436.06
2023-10-24T17:54:15.091Z,97440.13
2023-10-24T17:56:46.513Z,97433.91
2023-10-24T17:59:15.380Z,97443.59
2023-10-24T18:01:43.880Z,97443.09
2023-10-24T18:04:12.544Z,97451.19
2023-10-24T18:06:40.522Z,97452.41
2023-10-24T18:09:08.977Z,97447.13
2023-10-24T18:11:36.271Z,97458.75
2023-10-24T18:14:04.607Z,97455.25
2023-10-24T18:16:33.081Z,97461.03
2023-10-24T18:19:02.966Z,97476.31
2023-10-24T18:21:33.041Z,97467.69
2023-10-24T18:24:00.595Z,97473.81
2023-10-24T18:26:28.271Z,97473.06
2023-10-24T18:28:55.867Z,97475.13
2023-10-24T18:31:25.773Z,97482.69
2023-10-24T18:33:53.732Z,97488.00
2023-10-24T18:36:21.194Z,97486.00
2023-10-24T18:38:48.829Z,97484.84
2023-10-24T18:41:18.039Z,97479.59
2023-10-24T18:43:45.870Z,97479.84
2023-10-24T18:46:13.905Z,97477.63
2023-10-24T18:48:42.533Z,97482.47
2023-10-24T18:51:12.137Z,97485.53
2023-10-24T18:53:41.317Z,97482.09
2023-10-24T18:56:09.874Z,97479.22
2023-10-24T18:58:39.599Z,97481.13
2023-10-24T19:01:11.060Z,97485.91
2023-10-24T19:03:45.408Z,97488.06
2023-10-24T19:06:13.919Z,97488.13
2023-10-24T19:08:41.732Z,97496.88
2023-10-24T19:11:11.887Z,97499.56
2023-10-24T19:13:40.766Z,97500.97
2023-10-24T19:16:09.138Z,97497.53
2023-10-24T19:18:36.931Z,97509.44
2023-10-24T19:21:07.227Z,97512.72
2023-10-24T19:23:35.189Z,97503.38
2023-10-24T19:26:08.634Z,97511.78
2023-10-24T19:28:36.411Z,97510.31
2023-10-24T19:31:04.252Z,97509.94
2023-10-24T19:33:32.300Z,97524.53
2023-10-24T19:36:06.409Z,97523.41
2023-10-24T19:38:39.943Z,97525.78
2023-10-24T19:41:08.002Z,97521.00
2023-10-24T19:43:38.225Z,97526.31
2023-10-24T19:46:09.191Z,97526.66
2023-10-24T19:48:37.624Z,97532.75
2023-10-24T19:51:06.487Z,97533.66
2023-10-24T19:53:37.552Z,97537.28
2023-10-24T19:56:06.838Z,97536.38
2023-10-24T19:58:40.414Z,97535.59
2023-10-24T20:01:12.158Z,97535.34
2023-10-24T20:03:40.823Z,97538.94
2023-10-24T20:06:12.078Z,97533.44
2023-10-24T20:08:45.481Z,97533.81
2023-10-24T20:12:35.253Z,97541.09
2023-10-24T20:14:03.056Z,97531.84
2023-10-24T20:16:34.884Z,97537.88
2023-10-24T20:19:05.129Z,97532.91
2023-10-24T20:21:34.138Z,97536.91
2023-10-24T20:24:02.359Z,97542.25
2023-10-24T20:26:31.062Z,97544.50
2023-10-24T20:29:00.093Z,97547.47
2023-10-24T20:31:27.837Z,97544.81
2023-10-24T20:34:12.227Z,97543.84
2023-10-24T20:36:49.906Z,97546.41
2023-10-24T20:39:17.575Z,97546.34
2023-10-24T20:41:45.687Z,97541.22
2023-10-24T20:44:15.630Z,97539.81
2023-10-24T20:46:43.114Z,97538.91
2023-10-24T20:49:12.899Z,97537.16
2023-10-24T20:51:40.548Z,97530.97
2023-10-24T20:54:08.226Z,97542.13
2023-10-24T20:56:35.692Z,97541.56
2023-10-24T20:59:03.833Z,97542.59
2023-10-24T21:01:31.347Z,97546.94
2023-10-24T21:03:59.128Z,97541.81
2023-10-24T21:06:26.701Z,97554.06
2023-10-24T21:08:54.419Z,97555.00
2023-10-24T21:11:21.931Z,97558.50
2023-10-24T21:13:49.782Z,97552.03
2023-10-24T21:16:17.545Z,97563.31
2023-10-24T21:18:45.166Z,97558.78
2023-10-24T21:21:13.980Z,97543.09
2023-10-24T21:23:43.789Z,97550.81
2023-10-24T21:26:11.164Z,97550.13
2023-10-24T21:28:42.319Z,97547.22
2023-10-24T21:31:10.103Z,97551.72
2023-10-24T21:33:37.799Z,97549.78
2023-10-24T21:36:06.276Z,97549.56
2023-10-24T21:38:33.894Z,97548.50
2023-10-24T21:41:01.663Z,97545.84
2023-10-24T21:43:29.535Z,97543.66
2023-10-24T21:46:11.070Z,97544.16
2023-10-24T21:48:38.793Z,97550.25
2023-10-24T21:51:06.952Z,97542.84
2023-10-24T21:53:36.068Z,97543.63
2023-10-24T21:56:06.927Z,97544.19
2023-10-24T21:58:34.721Z,97548.47
2023-10-24T22:01:04.059Z,97549.78
2023-10-24T22:03:32.099Z,97542.78
2023-10-24T22:05:59.771Z,97544.50
2023-10-24T22:08:27.358Z,97550.94
2023-10-24T22:10:54.882Z,97547.94
2023-10-24T22:13:22.767Z,97554.38
2023-10-24T22:15:50.416Z,97544.25
2023-10-24T22:18:18.047Z,97551.25
2023-10-24T22:20:45.558Z,97547.97
2023-10-24T22:23:15.480Z,97550.88
2023-10-24T22:25:42.907Z,97553.31
2023-10-24T22:28:13.534Z,97546.34
2023-10-24T22:30:40.998Z,97542.38
2023-10-24T22:33:08.757Z,97541.09
2023-10-24T22:35:36.462Z,97540.09
2023-10-24T22:38:04.452Z,97536.66
2023-10-24T22:40:31.878Z,97542.19
2023-10-24T22:42:59.366Z,97547.53
2023-10-24T22:45:27.456Z,97545.59
2023-10-24T22:47:55.521Z,97553.22
2023-10-24T22:50:23.041Z,97553.00
2023-10-24T22:52:53.382Z,97551.34
2023-10-24T22:55:20.907Z,97551.88
2023-10-24T22:57:52.241Z,97553.34
2023-10-24T23:00:19.994Z,97558.72
2023-10-24T23:02:48.023Z,97554.97
2023-10-24T23:05:16.629Z,97555.59
2023-10-24T23:07:44.300Z,97565.94
2023-10-24T23:10:12.078Z,97560.13
2023-10-24T23:12:42.214Z,97566.31
2023-10-24T23:15:10.222Z,97557.84
2023-10-24T23:17:37.910Z,97553.41
2023-10-24T23:20:06.079Z,97552.00
2023-10-24T23:22:35.920Z,97556.53
2023-10-24T23:25:03.532Z,97559.31
2023-10-24T23:27:31.323Z,97548.44
2023-10-24T23:29:59.080Z,97547.50
2023-10-24T23:32:26.706Z,97547.91
2023-10-24T23:34:56.398Z,97552.75
2023-10-24T23:37:24.018Z,97548.44
2023-10-24T23:39:51.752Z,97546.28
2023-10-24T23:42:21.812Z,97537.16
2023-10-24T23:44:51.454Z,97534.63
2023-10-24T23:47:19.241Z,97545.28
2023-10-24T23:49:46.800Z,97548.00
2023-10-24T23:52:14.567Z,97549.56
2023-10-24T23:54:42.034Z,97538.09
2023-10-24T23:57:10.008Z,97546.84
2023-10-24T23:59:40.965Z,97542.69
